sensor_id;sensor_type;location;lat;lon;timestamp;P1;durP1;ratioP1;P2;durP2;ratioP2
72801;SDS011;61891;55.818;37.084;2022-11-15T00:01:51;1.80;;;0.55;;
72801;SDS011;61891;55.818;37.084;2022-11-15T00:04:35;2.35;;;0.38;;
72801;SDS011;61891;55.818;37.084;2022-11-15T00:07:19;1.25;;;0.55;;
72801;SDS011;61891;55.818;37.084;2022-11-15T00:10:04;1.83;;;0.50;;
72801;SDS011;61891;55.818;37.084;2022-11-15T00:12:48;1.33;;;0.45;;
72801;SDS011;61891;55.818;37.084;2022-11-15T00:15:36;4.15;;;0.40;;
72801;SDS011;61891;55.818;37.084;2022-11-15T00:18:21;1.02;;;0.30;;
72801;SDS011;61891;55.818;37.084;2022-11-15T00:21:11;0.70;;;0.52;;
72801;SDS011;61891;55.818;37.084;2022-11-15T00:23:58;2.92;;;0.73;;
72801;SDS011;61891;55.818;37.084;2022-11-15T00:26:42;1.33;;;0.60;;
72801;SDS011;61891;55.818;37.084;2022-11-15T00:29:26;0.60;;;0.20;;
72801;SDS011;61891;55.818;37.084;2022-11-15T00:32:11;1.90;;;0.68;;
72801;SDS011;61891;55.818;37.084;2022-11-15T00:34:56;3.53;;;0.90;;
72801;SDS011;61891;55.818;37.084;2022-11-15T00:37:40;0.90;;;0.57;;
72801;SDS011;61891;55.818;37.084;2022-11-15T00:40:24;1.65;;;0.60;;
72801;SDS011;61891;55.818;37.084;2022-11-15T00:43:08;1.13;;;0.40;;
72801;SDS011;61891;55.818;37.084;2022-11-15T00:45:52;0.57;;;0.10;;
72801;SDS011;61891;55.818;37.084;2022-11-15T00:48:37;1.13;;;0.70;;
72801;SDS011;61891;55.818;37.084;2022-11-15T00:51:21;1.42;;;0.52;;
72801;SDS011;61891;55.818;37.084;2022-11-15T00:54:05;2.05;;;0.68;;
72801;SDS011;61891;55.818;37.084;2022-11-15T00:56:49;2.33;;;0.90;;
72801;SDS011;61891;55.818;37.084;2022-11-15T00:59:34;1.10;;;0.77;;
72801;SDS011;61891;55.818;37.084;2022-11-15T01:02:18;2.97;;;0.70;;
72801;SDS011;61891;55.818;37.084;2022-11-15T01:05:03;2.13;;;0.93;;
72801;SDS011;61891;55.818;37.084;2022-11-15T01:07:50;2.60;;;0.90;;
72801;SDS011;61891;55.818;37.084;2022-11-15T01:10:36;1.08;;;0.57;;
72801;SDS011;61891;55.818;37.084;2022-11-15T01:13:20;2.50;;;0.77;;
72801;SDS011;61891;55.818;37.084;2022-11-15T01:16:12;2.78;;;0.70;;
72801;SDS011;61891;55.818;37.084;2022-11-15T01:18:58;1.88;;;0.90;;
72801;SDS011;61891;55.818;37.084;2022-11-15T01:21:43;1.70;;;0.63;;
72801;SDS011;61891;55.818;37.084;2022-11-15T01:24:27;2.25;;;0.75;;
72801;SDS011;61891;55.818;37.084;2022-11-15T01:27:11;2.38;;;0.88;;
72801;SDS011;61891;55.818;37.084;2022-11-15T01:29:55;3.85;;;0.93;;
72801;SDS011;61891;55.818;37.084;2022-11-15T01:32:40;4.75;;;1.10;;
72801;SDS011;61891;55.818;37.084;2022-11-15T01:35:24;2.72;;;1.00;;
72801;SDS011;61891;55.818;37.084;2022-11-15T01:38:08;2.63;;;0.77;;
72801;SDS011;61891;55.818;37.084;2022-11-15T01:40:52;5.03;;;1.08;;
72801;SDS011;61891;55.818;37.084;2022-11-15T01:43:39;1.90;;;0.90;;
72801;SDS011;61891;55.818;37.084;2022-11-15T01:49:11;3.78;;;0.85;;
72801;SDS011;61891;55.818;37.084;2022-11-15T01:51:59;3.03;;;1.10;;
72801;SDS011;61891;55.818;37.084;2022-11-15T01:54:47;1.75;;;0.95;;
72801;SDS011;61891;55.818;37.084;2022-11-15T01:57:35;1.67;;;0.90;;
72801;SDS011;61891;55.818;37.084;2022-11-15T02:00:20;1.73;;;0.40;;
72801;SDS011;61891;55.818;37.084;2022-11-15T02:03:04;3.20;;;1.13;;
72801;SDS011;61891;55.818;37.084;2022-11-15T02:05:48;3.72;;;0.80;;
72801;SDS011;61891;55.818;37.084;2022-11-15T02:08:34;2.28;;;1.00;;
72801;SDS011;61891;55.818;37.084;2022-11-15T02:11:19;2.20;;;1.02;;
72801;SDS011;61891;55.818;37.084;2022-11-15T02:14:03;2.08;;;0.90;;
72801;SDS011;61891;55.818;37.084;2022-11-15T02:23:28;1.55;;;0.80;;
72801;SDS011;61891;55.818;37.084;2022-11-15T02:29:33;2.85;;;1.00;;
72801;SDS011;61891;55.818;37.084;2022-11-15T02:32:29;2.08;;;0.80;;
72801;SDS011;61891;55.818;37.084;2022-11-15T02:35:37;2.20;;;0.88;;
72801;SDS011;61891;55.818;37.084;2022-11-15T02:39:08;1.85;;;0.63;;
72801;SDS011;61891;55.818;37.084;2022-11-15T02:42:04;3.22;;;1.35;;
72801;SDS011;61891;55.818;37.084;2022-11-15T02:45:13;2.50;;;0.80;;
72801;SDS011;61891;55.818;37.084;2022-11-15T02:48:08;4.65;;;1.17;;
72801;SDS011;61891;55.818;37.084;2022-11-15T02:50:55;1.80;;;0.70;;
72801;SDS011;61891;55.818;37.084;2022-11-15T02:53:39;2.63;;;0.82;;
72801;SDS011;61891;55.818;37.084;2022-11-15T02:56:24;2.25;;;0.90;;
72801;SDS011;61891;55.818;37.084;2022-11-15T03:02:17;3.88;;;0.90;;
72801;SDS011;61891;55.818;37.084;2022-11-15T03:11:41;1.90;;;1.20;;
72801;SDS011;61891;55.818;37.084;2022-11-15T03:14:34;3.63;;;1.40;;
72801;SDS011;61891;55.818;37.084;2022-11-15T03:17:28;2.75;;;1.25;;
72801;SDS011;61891;55.818;37.084;2022-11-15T03:20:19;2.40;;;1.23;;
72801;SDS011;61891;55.818;37.084;2022-11-15T03:23:04;4.65;;;1.50;;
72801;SDS011;61891;55.818;37.084;2022-11-15T03:25:50;3.95;;;1.30;;
72801;SDS011;61891;55.818;37.084;2022-11-15T03:28:44;4.88;;;1.20;;
72801;SDS011;61891;55.818;37.084;2022-11-15T03:31:42;6.80;;;2.15;;
72801;SDS011;61891;55.818;37.084;2022-11-15T03:37:28;4.78;;;2.13;;
72801;SDS011;61891;55.818;37.084;2022-11-15T03:40:40;5.65;;;1.90;;
72801;SDS011;61891;55.818;37.084;2022-11-15T03:46:32;4.60;;;1.50;;
72801;SDS011;61891;55.818;37.084;2022-11-15T03:49:27;5.80;;;1.48;;
72801;SDS011;61891;55.818;37.084;2022-11-15T03:52:17;5.00;;;1.50;;
72801;SDS011;61891;55.818;37.084;2022-11-15T03:55:03;4.05;;;1.33;;
72801;SDS011;61891;55.818;37.084;2022-11-15T03:57:50;3.50;;;1.10;;
72801;SDS011;61891;55.818;37.084;2022-11-15T04:00:37;2.92;;;1.58;;
72801;SDS011;61891;55.818;37.084;2022-11-15T04:03:21;2.55;;;1.00;;
72801;SDS011;61891;55.818;37.084;2022-11-15T04:06:05;2.10;;;0.88;;
72801;SDS011;61891;55.818;37.084;2022-11-15T04:08:50;2.50;;;0.60;;
72801;SDS011;61891;55.818;37.084;2022-11-15T04:11:37;2.88;;;0.60;;
72801;SDS011;61891;55.818;37.084;2022-11-15T04:14:21;2.65;;;1.08;;
72801;SDS011;61891;55.818;37.084;2022-11-15T04:17:05;2.78;;;0.60;;
72801;SDS011;61891;55.818;37.084;2022-11-15T04:19:50;5.22;;;0.98;;
72801;SDS011;61891;55.818;37.084;2022-11-15T04:22:54;5.03;;;0.95;;
72801;SDS011;61891;55.818;37.084;2022-11-15T04:25:58;2.20;;;1.33;;
72801;SDS011;61891;55.818;37.084;2022-11-15T04:28:45;2.67;;;0.55;;
72801;SDS011;61891;55.818;37.084;2022-11-15T04:31:48;4.00;;;0.68;;
72801;SDS011;61891;55.818;37.084;2022-11-15T04:34:32;4.68;;;0.80;;
72801;SDS011;61891;55.818;37.084;2022-11-15T04:37:17;2.80;;;0.80;;
72801;SDS011;61891;55.818;37.084;2022-11-15T04:40:04;11.80;;;3.25;;
72801;SDS011;61891;55.818;37.084;2022-11-15T04:42:49;8.85;;;2.80;;
72801;SDS011;61891;55.818;37.084;2022-11-15T04:45:34;11.13;;;3.72;;
72801;SDS011;61891;55.818;37.084;2022-11-15T04:48:18;17.20;;;3.85;;
72801;SDS011;61891;55.818;37.084;2022-11-15T04:51:02;10.20;;;2.88;;
72801;SDS011;61891;55.818;37.084;2022-11-15T04:53:49;7.20;;;1.40;;
72801;SDS011;61891;55.818;37.084;2022-11-15T04:56:33;4.43;;;1.13;;
72801;SDS011;61891;55.818;37.084;2022-11-15T04:59:17;2.80;;;0.90;;
72801;SDS011;61891;55.818;37.084;2022-11-15T05:02:01;5.32;;;0.90;;
72801;SDS011;61891;55.818;37.084;2022-11-15T05:04:45;3.85;;;1.13;;
72801;SDS011;61891;55.818;37.084;2022-11-15T05:07:30;2.28;;;1.25;;
72801;SDS011;61891;55.818;37.084;2022-11-15T05:10:14;3.35;;;1.00;;
72801;SDS011;61891;55.818;37.084;2022-11-15T05:13:00;3.00;;;1.48;;
72801;SDS011;61891;55.818;37.084;2022-11-15T05:15:52;10.52;;;3.55;;
72801;SDS011;61891;55.818;37.084;2022-11-15T05:18:37;13.82;;;3.58;;
72801;SDS011;61891;55.818;37.084;2022-11-15T05:21:24;17.30;;;5.05;;
72801;SDS011;61891;55.818;37.084;2022-11-15T05:24:11;7.50;;;2.00;;
72801;SDS011;61891;55.818;37.084;2022-11-15T05:26:55;8.45;;;1.92;;
72801;SDS011;61891;55.818;37.084;2022-11-15T05:29:42;5.93;;;1.20;;
72801;SDS011;61891;55.818;37.084;2022-11-15T05:32:29;6.95;;;1.20;;
72801;SDS011;61891;55.818;37.084;2022-11-15T05:35:37;6.82;;;2.08;;
72801;SDS011;61891;55.818;37.084;2022-11-15T05:38:23;5.13;;;1.02;;
72801;SDS011;61891;55.818;37.084;2022-11-15T05:41:07;3.53;;;0.82;;
72801;SDS011;61891;55.818;37.084;2022-11-15T05:43:55;5.18;;;0.77;;
72801;SDS011;61891;55.818;37.084;2022-11-15T05:46:39;4.85;;;1.00;;
72801;SDS011;61891;55.818;37.084;2022-11-15T05:49:26;19.48;;;9.60;;
72801;SDS011;61891;55.818;37.084;2022-11-15T05:52:16;8.18;;;3.22;;
72801;SDS011;61891;55.818;37.084;2022-11-15T05:55:06;9.02;;;5.40;;
72801;SDS011;61891;55.818;37.084;2022-11-15T05:57:52;5.10;;;1.52;;
72801;SDS011;61891;55.818;37.084;2022-11-15T06:00:36;6.40;;;1.70;;
72801;SDS011;61891;55.818;37.084;2022-11-15T06:03:21;6.20;;;1.60;;
72801;SDS011;61891;55.818;37.084;2022-11-15T06:06:05;6.03;;;1.27;;
72801;SDS011;61891;55.818;37.084;2022-11-15T06:08:49;6.25;;;2.20;;
72801;SDS011;61891;55.818;37.084;2022-11-15T06:11:33;8.35;;;3.05;;
72801;SDS011;61891;55.818;37.084;2022-11-15T06:14:21;8.63;;;2.58;;
72801;SDS011;61891;55.818;37.084;2022-11-15T06:17:05;5.35;;;2.13;;
72801;SDS011;61891;55.818;37.084;2022-11-15T06:19:49;9.43;;;2.65;;
72801;SDS011;61891;55.818;37.084;2022-11-15T06:22:33;1.70;;;0.70;;
72801;SDS011;61891;55.818;37.084;2022-11-15T06:25:18;5.70;;;1.40;;
72801;SDS011;61891;55.818;37.084;2022-11-15T06:28:02;4.88;;;1.52;;
72801;SDS011;61891;55.818;37.084;2022-11-15T06:30:46;8.77;;;2.10;;
72801;SDS011;61891;55.818;37.084;2022-11-15T06:33:31;5.07;;;1.70;;
72801;SDS011;61891;55.818;37.084;2022-11-15T06:36:15;6.20;;;1.98;;
72801;SDS011;61891;55.818;37.084;2022-11-15T06:39:01;2.78;;;1.20;;
72801;SDS011;61891;55.818;37.084;2022-11-15T06:41:46;6.05;;;2.25;;
72801;SDS011;61891;55.818;37.084;2022-11-15T06:44:30;4.32;;;1.65;;
72801;SDS011;61891;55.818;37.084;2022-11-15T06:47:14;4.40;;;1.65;;
72801;SDS011;61891;55.818;37.084;2022-11-15T06:49:58;14.70;;;6.13;;
72801;SDS011;61891;55.818;37.084;2022-11-15T06:52:43;10.85;;;4.15;;
72801;SDS011;61891;55.818;37.084;2022-11-15T06:55:29;3.83;;;1.00;;
72801;SDS011;61891;55.818;37.084;2022-11-15T06:58:13;1.17;;;0.25;;
72801;SDS011;61891;55.818;37.084;2022-11-15T07:00:58;3.13;;;1.17;;
72801;SDS011;61891;55.818;37.084;2022-11-15T07:03:44;3.97;;;1.58;;
72801;SDS011;61891;55.818;37.084;2022-11-15T07:06:31;10.32;;;3.78;;
72801;SDS011;61891;55.818;37.084;2022-11-15T07:09:15;5.55;;;1.90;;
72801;SDS011;61891;55.818;37.084;2022-11-15T07:12:02;7.85;;;2.22;;
72801;SDS011;61891;55.818;37.084;2022-11-15T07:14:49;4.28;;;1.88;;
72801;SDS011;61891;55.818;37.084;2022-11-15T07:17:34;3.75;;;1.77;;
72801;SDS011;61891;55.818;37.084;2022-11-15T07:20:18;3.38;;;0.82;;
72801;SDS011;61891;55.818;37.084;2022-11-15T07:23:03;4.57;;;1.35;;
72801;SDS011;61891;55.818;37.084;2022-11-15T07:25:51;4.97;;;1.13;;
72801;SDS011;61891;55.818;37.084;2022-11-15T07:28:35;2.33;;;0.80;;
72801;SDS011;61891;55.818;37.084;2022-11-15T07:31:22;1.90;;;0.70;;
72801;SDS011;61891;55.818;37.084;2022-11-15T07:34:06;1.38;;;0.90;;
72801;SDS011;61891;55.818;37.084;2022-11-15T07:36:50;3.00;;;1.20;;
72801;SDS011;61891;55.818;37.084;2022-11-15T07:39:34;2.17;;;0.80;;
72801;SDS011;61891;55.818;37.084;2022-11-15T07:42:19;2.15;;;1.08;;
72801;SDS011;61891;55.818;37.084;2022-11-15T07:45:22;3.60;;;1.20;;
72801;SDS011;61891;55.818;37.084;2022-11-15T07:48:09;2.10;;;0.68;;
72801;SDS011;61891;55.818;37.084;2022-11-15T07:50:54;3.63;;;0.98;;
72801;SDS011;61891;55.818;37.084;2022-11-15T07:53:38;2.20;;;0.85;;
72801;SDS011;61891;55.818;37.084;2022-11-15T07:56:22;2.92;;;0.90;;
72801;SDS011;61891;55.818;37.084;2022-11-15T07:59:06;1.38;;;0.60;;
72801;SDS011;61891;55.818;37.084;2022-11-15T08:01:51;3.95;;;1.13;;
72801;SDS011;61891;55.818;37.084;2022-11-15T08:04:35;1.92;;;1.08;;
72801;SDS011;61891;55.818;37.084;2022-11-15T08:07:19;2.00;;;0.90;;
72801;SDS011;61891;55.818;37.084;2022-11-15T08:10:04;3.88;;;1.27;;
72801;SDS011;61891;55.818;37.084;2022-11-15T08:13:03;2.75;;;1.10;;
72801;SDS011;61891;55.818;37.084;2022-11-15T08:15:49;6.38;;;2.10;;
72801;SDS011;61891;55.818;37.084;2022-11-15T08:18:33;1.77;;;0.90;;
72801;SDS011;61891;55.818;37.084;2022-11-15T08:21:18;4.45;;;1.38;;
72801;SDS011;61891;55.818;37.084;2022-11-15T08:24:04;2.22;;;1.10;;
72801;SDS011;61891;55.818;37.084;2022-11-15T08:26:49;1.50;;;0.70;;
72801;SDS011;61891;55.818;37.084;2022-11-15T08:29:33;3.40;;;1.40;;
72801;SDS011;61891;55.818;37.084;2022-11-15T08:32:17;1.50;;;0.70;;
72801;SDS011;61891;55.818;37.084;2022-11-15T08:35:03;3.00;;;1.00;;
72801;SDS011;61891;55.818;37.084;2022-11-15T08:37:47;3.90;;;1.55;;
72801;SDS011;61891;55.818;37.084;2022-11-15T08:40:31;3.20;;;1.52;;
72801;SDS011;61891;55.818;37.084;2022-11-15T08:43:16;2.95;;;1.08;;
72801;SDS011;61891;55.818;37.084;2022-11-15T08:46:00;5.03;;;2.00;;
72801;SDS011;61891;55.818;37.084;2022-11-15T08:48:44;4.15;;;1.27;;
72801;SDS011;61891;55.818;37.084;2022-11-15T08:51:29;3.85;;;1.30;;
72801;SDS011;61891;55.818;37.084;2022-11-15T08:54:13;3.20;;;1.58;;
72801;SDS011;61891;55.818;37.084;2022-11-15T08:56:57;4.80;;;1.27;;
72801;SDS011;61891;55.818;37.084;2022-11-15T08:59:41;3.97;;;1.42;;
72801;SDS011;61891;55.818;37.084;2022-11-15T09:02:26;3.05;;;1.30;;
72801;SDS011;61891;55.818;37.084;2022-11-15T09:05:10;2.63;;;1.45;;
72801;SDS011;61891;55.818;37.084;2022-11-15T09:07:54;4.07;;;1.20;;
72801;SDS011;61891;55.818;37.084;2022-11-15T09:10:38;4.35;;;1.58;;
72801;SDS011;61891;55.818;37.084;2022-11-15T09:13:23;2.03;;;1.00;;
72801;SDS011;61891;55.818;37.084;2022-11-15T09:16:07;3.47;;;1.23;;
72801;SDS011;61891;55.818;37.084;2022-11-15T09:18:53;3.35;;;1.30;;
72801;SDS011;61891;55.818;37.084;2022-11-15T09:21:38;2.80;;;1.27;;
72801;SDS011;61891;55.818;37.084;2022-11-15T09:24:22;4.90;;;1.88;;
72801;SDS011;61891;55.818;37.084;2022-11-15T09:27:06;2.63;;;1.17;;
72801;SDS011;61891;55.818;37.084;2022-11-15T09:29:51;5.82;;;1.20;;
72801;SDS011;61891;55.818;37.084;2022-11-15T09:32:35;4.75;;;1.42;;
72801;SDS011;61891;55.818;37.084;2022-11-15T09:35:21;3.75;;;1.17;;
72801;SDS011;61891;55.818;37.084;2022-11-15T09:38:06;4.57;;;2.17;;
72801;SDS011;61891;55.818;37.084;2022-11-15T09:40:53;2.85;;;1.17;;
72801;SDS011;61891;55.818;37.084;2022-11-15T09:50:34;5.32;;;1.70;;
72801;SDS011;61891;55.818;37.084;2022-11-15T09:53:05;2.65;;;1.30;;
72801;SDS011;61891;55.818;37.084;2022-11-15T10:01:19;4.75;;;2.13;;
72801;SDS011;61891;55.818;37.084;2022-11-15T10:04:02;1.85;;;1.30;;
72801;SDS011;61891;55.818;37.084;2022-11-15T10:06:31;3.05;;;0.90;;
72801;SDS011;61891;55.818;37.084;2022-11-15T10:11:34;5.07;;;1.65;;
72801;SDS011;61891;55.818;37.084;2022-11-15T10:14:04;7.57;;;1.85;;
72801;SDS011;61891;55.818;37.084;2022-11-15T10:19:35;8.55;;;1.50;;
72801;SDS011;61891;55.818;37.084;2022-11-15T10:22:31;5.90;;;1.40;;
72801;SDS011;61891;55.818;37.084;2022-11-15T10:25:12;5.68;;;1.30;;
72801;SDS011;61891;55.818;37.084;2022-11-15T10:27:43;4.70;;;1.83;;
72801;SDS011;61891;55.818;37.084;2022-11-15T10:30:14;4.32;;;1.77;;
72801;SDS011;61891;55.818;37.084;2022-11-15T10:32:42;4.28;;;1.65;;
72801;SDS011;61891;55.818;37.084;2022-11-15T10:35:22;5.43;;;1.60;;
72801;SDS011;61891;55.818;37.084;2022-11-15T10:37:56;4.40;;;1.63;;
72801;SDS011;61891;55.818;37.084;2022-11-15T10:40:31;3.78;;;1.65;;
72801;SDS011;61891;55.818;37.084;2022-11-15T10:43:30;5.78;;;1.98;;
72801;SDS011;61891;55.818;37.084;2022-11-15T10:45:51;3.05;;;0.75;;
72801;SDS011;61891;55.818;37.084;2022-11-15T10:50:44;2.25;;;1.40;;
72801;SDS011;61891;55.818;37.084;2022-11-15T10:53:44;2.97;;;1.30;;
72801;SDS011;61891;55.818;37.084;2022-11-15T10:56:07;3.22;;;1.60;;
72801;SDS011;61891;55.818;37.084;2022-11-15T10:58:43;2.33;;;1.40;;
72801;SDS011;61891;55.818;37.084;2022-11-15T11:01:16;3.42;;;1.60;;
72801;SDS011;61891;55.818;37.084;2022-11-15T11:04:05;4.97;;;1.67;;
72801;SDS011;61891;55.818;37.084;2022-11-15T11:12:03;5.78;;;1.88;;
72801;SDS011;61891;55.818;37.084;2022-11-15T11:14:31;3.78;;;1.48;;
72801;SDS011;61891;55.818;37.084;2022-11-15T11:28:37;8.88;;;2.70;;
72801;SDS011;61891;55.818;37.084;2022-11-15T11:33:36;3.10;;;1.55;;
72801;SDS011;61891;55.818;37.084;2022-11-15T11:39:28;5.00;;;1.73;;
72801;SDS011;61891;55.818;37.084;2022-11-15T11:42:13;5.72;;;1.70;;
72801;SDS011;61891;55.818;37.084;2022-11-15T11:47:37;9.82;;;3.83;;
72801;SDS011;61891;55.818;37.084;2022-11-15T11:50:13;5.75;;;2.05;;
72801;SDS011;61891;55.818;37.084;2022-11-15T11:55:46;8.48;;;2.75;;
72801;SDS011;61891;55.818;37.084;2022-11-15T11:58:17;6.80;;;2.47;;
72801;SDS011;61891;55.818;37.084;2022-11-15T12:00:58;7.25;;;2.75;;
72801;SDS011;61891;55.818;37.084;2022-11-15T12:03:38;6.43;;;2.67;;
72801;SDS011;61891;55.818;37.084;2022-11-15T12:09:51;6.28;;;2.63;;
72801;SDS011;61891;55.818;37.084;2022-11-15T12:12:54;6.47;;;2.55;;
72801;SDS011;61891;55.818;37.084;2022-11-15T12:15:24;4.68;;;2.20;;
72801;SDS011;61891;55.818;37.084;2022-11-15T12:17:54;4.65;;;2.08;;
72801;SDS011;61891;55.818;37.084;2022-11-15T12:20:26;5.82;;;2.40;;
72801;SDS011;61891;55.818;37.084;2022-11-15T12:23:10;5.55;;;2.70;;
72801;SDS011;61891;55.818;37.084;2022-11-15T12:25:48;5.40;;;2.00;;
72801;SDS011;61891;55.818;37.084;2022-11-15T12:31:04;4.30;;;2.30;;
72801;SDS011;61891;55.818;37.084;2022-11-15T12:36:32;12.88;;;3.13;;
72801;SDS011;61891;55.818;37.084;2022-11-15T12:39:01;3.47;;;1.98;;
72801;SDS011;61891;55.818;37.084;2022-11-15T12:41:31;4.43;;;2.28;;
72801;SDS011;61891;55.818;37.084;2022-11-15T12:44:11;7.22;;;2.67;;
72801;SDS011;61891;55.818;37.084;2022-11-15T13:02:38;7.82;;;3.78;;
72801;SDS011;61891;55.818;37.084;2022-11-15T13:18:18;7.78;;;3.58;;
72801;SDS011;61891;55.818;37.084;2022-11-15T13:20:51;7.68;;;3.35;;
72801;SDS011;61891;55.818;37.084;2022-11-15T13:23:17;6.47;;;3.70;;
72801;SDS011;61891;55.818;37.084;2022-11-15T13:28:35;8.95;;;4.45;;
72801;SDS011;61891;55.818;37.084;2022-11-15T13:36:44;8.98;;;4.00;;
72801;SDS011;61891;55.818;37.084;2022-11-15T13:39:30;9.18;;;3.60;;
72801;SDS011;61891;55.818;37.084;2022-11-15T13:41:58;6.53;;;3.63;;
72801;SDS011;61891;55.818;37.084;2022-11-15T13:44:25;8.15;;;3.90;;
72801;SDS011;61891;55.818;37.084;2022-11-15T13:47:06;10.00;;;5.00;;
72801;SDS011;61891;55.818;37.084;2022-11-15T13:49:43;11.90;;;4.10;;
72801;SDS011;61891;55.818;37.084;2022-11-15T13:52:13;7.50;;;3.55;;
72801;SDS011;61891;55.818;37.084;2022-11-15T13:54:43;5.80;;;2.90;;
72801;SDS011;61891;55.818;37.084;2022-11-15T13:57:25;4.82;;;2.05;;
72801;SDS011;61891;55.818;37.084;2022-11-15T13:59:55;7.30;;;2.67;;
72801;SDS011;61891;55.818;37.084;2022-11-15T14:02:26;10.68;;;3.88;;
72801;SDS011;61891;55.818;37.084;2022-11-15T14:10:40;7.55;;;3.53;;
72801;SDS011;61891;55.818;37.084;2022-11-15T14:13:11;6.53;;;2.55;;
72801;SDS011;61891;55.818;37.084;2022-11-15T14:15:53;6.93;;;3.35;;
72801;SDS011;61891;55.818;37.084;2022-11-15T14:18:46;7.55;;;3.42;;
72801;SDS011;61891;55.818;37.084;2022-11-15T14:21:12;10.95;;;4.68;;
72801;SDS011;61891;55.818;37.084;2022-11-15T14:23:38;12.85;;;5.35;;
72801;SDS011;61891;55.818;37.084;2022-11-15T14:26:04;28.17;;;9.15;;
72801;SDS011;61891;55.818;37.084;2022-11-15T14:28:31;7.22;;;3.60;;
72801;SDS011;61891;55.818;37.084;2022-11-15T14:31:01;21.60;;;7.82;;
72801;SDS011;61891;55.818;37.084;2022-11-15T14:33:36;4.68;;;2.40;;
72801;SDS011;61891;55.818;37.084;2022-11-15T14:36:04;8.48;;;3.08;;
72801;SDS011;61891;55.818;37.084;2022-11-15T14:38:30;12.95;;;3.38;;
72801;SDS011;61891;55.818;37.084;2022-11-15T14:40:56;17.70;;;6.25;;
72801;SDS011;61891;55.818;37.084;2022-11-15T14:43:23;7.82;;;3.30;;
72801;SDS011;61891;55.818;37.084;2022-11-15T14:45:50;4.97;;;2.22;;
72801;SDS011;61891;55.818;37.084;2022-11-15T14:48:16;6.03;;;2.08;;
72801;SDS011;61891;55.818;37.084;2022-11-15T14:50:42;7.57;;;2.85;;
72801;SDS011;61891;55.818;37.084;2022-11-15T14:53:17;7.68;;;3.00;;
72801;SDS011;61891;55.818;37.084;2022-11-15T14:55:45;5.13;;;3.45;;
72801;SDS011;61891;55.818;37.084;2022-11-15T14:58:11;5.75;;;3.20;;
72801;SDS011;61891;55.818;37.084;2022-11-15T15:00:37;8.07;;;3.85;;
72801;SDS011;61891;55.818;37.084;2022-11-15T15:03:04;10.50;;;4.22;;
72801;SDS011;61891;55.818;37.084;2022-11-15T15:08:01;10.07;;;5.35;;
72801;SDS011;61891;55.818;37.084;2022-11-15T15:10:34;9.45;;;5.20;;
72801;SDS011;61891;55.818;37.084;2022-11-15T15:13:03;9.48;;;4.38;;
72801;SDS011;61891;55.818;37.084;2022-11-15T15:15:31;8.77;;;4.50;;
72801;SDS011;61891;55.818;37.084;2022-11-15T15:17:59;9.30;;;4.10;;
72801;SDS011;61891;55.818;37.084;2022-11-15T15:20:27;7.70;;;3.58;;
72801;SDS011;61891;55.818;37.084;2022-11-15T15:22:54;8.23;;;4.05;;
72801;SDS011;61891;55.818;37.084;2022-11-15T15:25:22;6.28;;;3.33;;
72801;SDS011;61891;55.818;37.084;2022-11-15T15:27:52;7.65;;;3.75;;
72801;SDS011;61891;55.818;37.084;2022-11-15T15:30:18;11.32;;;5.00;;
72801;SDS011;61891;55.818;37.084;2022-11-15T15:32:44;11.95;;;5.38;;
72801;SDS011;61891;55.818;37.084;2022-11-15T15:35:13;8.50;;;4.55;;
72801;SDS011;61891;55.818;37.084;2022-11-15T15:37:40;7.50;;;3.45;;
72801;SDS011;61891;55.818;37.084;2022-11-15T15:40:11;9.07;;;4.60;;
72801;SDS011;61891;55.818;37.084;2022-11-15T15:42:38;7.32;;;3.55;;
72801;SDS011;61891;55.818;37.084;2022-11-15T15:45:03;7.65;;;3.58;;
72801;SDS011;61891;55.818;37.084;2022-11-15T15:47:30;6.97;;;3.38;;
72801;SDS011;61891;55.818;37.084;2022-11-15T15:49:56;6.00;;;3.20;;
72801;SDS011;61891;55.818;37.084;2022-11-15T15:52:22;10.30;;;3.83;;
72801;SDS011;61891;55.818;37.084;2022-11-15T15:54:50;8.07;;;3.95;;
72801;SDS011;61891;55.818;37.084;2022-11-15T15:57:16;16.15;;;7.97;;
72801;SDS011;61891;55.818;37.084;2022-11-15T15:59:43;6.97;;;3.53;;
72801;SDS011;61891;55.818;37.084;2022-11-15T16:02:10;5.28;;;2.40;;
72801;SDS011;61891;55.818;37.084;2022-11-15T16:04:38;10.75;;;3.50;;
72801;SDS011;61891;55.818;37.084;2022-11-15T16:07:07;8.45;;;4.10;;
72801;SDS011;61891;55.818;37.084;2022-11-15T16:09:44;8.82;;;3.53;;
72801;SDS011;61891;55.818;37.084;2022-11-15T16:12:29;8.27;;;4.70;;
72801;SDS011;61891;55.818;37.084;2022-11-15T16:15:07;7.72;;;3.47;;
72801;SDS011;61891;55.818;37.084;2022-11-15T16:17:34;7.65;;;3.72;;
72801;SDS011;61891;55.818;37.084;2022-11-15T16:20:03;9.48;;;4.32;;
72801;SDS011;61891;55.818;37.084;2022-11-15T16:22:34;8.15;;;4.53;;
72801;SDS011;61891;55.818;37.084;2022-11-15T16:25:01;8.52;;;4.28;;
72801;SDS011;61891;55.818;37.084;2022-11-15T16:27:28;7.43;;;3.95;;
72801;SDS011;61891;55.818;37.084;2022-11-15T16:29:54;10.35;;;5.57;;
72801;SDS011;61891;55.818;37.084;2022-11-15T16:32:19;8.82;;;4.47;;
72801;SDS011;61891;55.818;37.084;2022-11-15T16:34:46;7.57;;;4.45;;
72801;SDS011;61891;55.818;37.084;2022-11-15T16:37:21;11.13;;;4.97;;
72801;SDS011;61891;55.818;37.084;2022-11-15T16:39:48;5.60;;;3.10;;
72801;SDS011;61891;55.818;37.084;2022-11-15T16:42:14;8.75;;;5.68;;
72801;SDS011;61891;55.818;37.084;2022-11-15T16:44:39;10.55;;;4.80;;
72801;SDS011;61891;55.818;37.084;2022-11-15T16:47:10;9.38;;;4.90;;
72801;SDS011;61891;55.818;37.084;2022-11-15T16:49:42;10.77;;;5.28;;
72801;SDS011;61891;55.818;37.084;2022-11-15T16:54:34;13.77;;;5.85;;
72801;SDS011;61891;55.818;37.084;2022-11-15T16:57:00;11.32;;;5.55;;
72801;SDS011;61891;55.818;37.084;2022-11-15T16:59:25;14.25;;;5.22;;
72801;SDS011;61891;55.818;37.084;2022-11-15T17:01:51;13.82;;;5.88;;
72801;SDS011;61891;55.818;37.084;2022-11-15T17:04:17;12.52;;;5.53;;
72801;SDS011;61891;55.818;37.084;2022-11-15T17:06:45;13.43;;;5.75;;
72801;SDS011;61891;55.818;37.084;2022-11-15T17:09:16;12.27;;;5.72;;
72801;SDS011;61891;55.818;37.084;2022-11-15T17:11:43;11.45;;;5.88;;
72801;SDS011;61891;55.818;37.084;2022-11-15T17:14:09;10.55;;;5.20;;
72801;SDS011;61891;55.818;37.084;2022-11-15T17:16:36;8.55;;;4.72;;
72801;SDS011;61891;55.818;37.084;2022-11-15T17:19:10;8.52;;;4.63;;
72801;SDS011;61891;55.818;37.084;2022-11-15T17:21:46;7.68;;;4.55;;
72801;SDS011;61891;55.818;37.084;2022-11-15T17:24:15;6.82;;;3.70;;
72801;SDS011;61891;55.818;37.084;2022-11-15T17:26:41;9.85;;;4.57;;
72801;SDS011;61891;55.818;37.084;2022-11-15T17:29:07;11.23;;;4.15;;
72801;SDS011;61891;55.818;37.084;2022-11-15T17:31:36;11.32;;;5.18;;
72801;SDS011;61891;55.818;37.084;2022-11-15T17:34:03;8.30;;;4.60;;
72801;SDS011;61891;55.818;37.084;2022-11-15T17:36:30;9.00;;;5.38;;
72801;SDS011;61891;55.818;37.084;2022-11-15T17:38:56;10.05;;;4.57;;
72801;SDS011;61891;55.818;37.084;2022-11-15T17:41:22;6.75;;;3.53;;
72801;SDS011;61891;55.818;37.084;2022-11-15T17:43:51;8.57;;;4.70;;
72801;SDS011;61891;55.818;37.084;2022-11-15T17:46:18;11.05;;;4.57;;
72801;SDS011;61891;55.818;37.084;2022-11-15T17:48:45;10.88;;;5.85;;
72801;SDS011;61891;55.818;37.084;2022-11-15T17:51:13;8.88;;;4.68;;
72801;SDS011;61891;55.818;37.084;2022-11-15T17:53:41;11.05;;;5.45;;
72801;SDS011;61891;55.818;37.084;2022-11-15T17:56:14;9.98;;;4.63;;
72801;SDS011;61891;55.818;37.084;2022-11-15T17:58:45;9.43;;;5.05;;
72801;SDS011;61891;55.818;37.084;2022-11-15T18:03:44;10.60;;;5.38;;
72801;SDS011;61891;55.818;37.084;2022-11-15T18:06:11;9.60;;;5.10;;